sensor_id;sensor_type;location;lat;lon;timestamp;temperature;humidity
21734;DHT22;11029;47.820;10.534;2023-03-14T00:01:13;9.40;76.30
21734;DHT22;11029;47.820;10.534;2023-03-14T00:03:41;9.40;75.90
21734;DHT22;11029;47.820;10.534;2023-03-14T00:06:08;9.50;75.20
21734;DHT22;11029;47.820;10.534;2023-03-14T00:08:36;9.40;75.30
21734;DHT22;11029;47.820;10.534;2023-03-14T00:11:11;9.40;75.20
21734;DHT22;11029;47.820;10.534;2023-03-14T00:13:38;9.50;75.30
21734;DHT22;11029;47.820;10.534;2023-03-14T00:16:07;9.50;75.50
21734;DHT22;11029;47.820;10.534;2023-03-14T00:18:34;9.40;75.60
21734;DHT22;11029;47.820;10.534;2023-03-14T00:21:02;9.30;76.50
21734;DHT22;11029;47.820;10.534;2023-03-14T00:23:31;9.30;77.30
21734;DHT22;11029;47.820;10.534;2023-03-14T00:26:02;9.20;77.80
21734;DHT22;11029;47.820;10.534;2023-03-14T00:28:29;9.20;77.80
21734;DHT22;11029;47.820;10.534;2023-03-14T00:30:56;9.10;78.60
21734;DHT22;11029;47.820;10.534;2023-03-14T00:33:23;9.10;78.80
21734;DHT22;11029;47.820;10.534;2023-03-14T00:35:54;9.00;79.80
21734;DHT22;11029;47.820;10.534;2023-03-14T00:38:22;8.80;81.00
21734;DHT22;11029;47.820;10.534;2023-03-14T00:40:54;8.80;81.30
21734;DHT22;11029;47.820;10.534;2023-03-14T00:43:21;8.70;82.90
21734;DHT22;11029;47.820;10.534;2023-03-14T00:45:52;8.60;83.60
21734;DHT22;11029;47.820;10.534;2023-03-14T00:48:19;8.60;84.10
21734;DHT22;11029;47.820;10.534;2023-03-14T00:50:46;8.50;84.40
21734;DHT22;11029;47.820;10.534;2023-03-14T00:53:14;8.40;84.40
21734;DHT22;11029;47.820;10.534;2023-03-14T00:55:42;8.50;83.80
21734;DHT22;11029;47.820;10.534;2023-03-14T00:58:11;8.50;83.60
21734;DHT22;11029;47.820;10.534;2023-03-14T01:00:39;8.40;83.90
21734;DHT22;11029;47.820;10.534;2023-03-14T01:03:07;8.20;84.70
21734;DHT22;11029;47.820;10.534;2023-03-14T01:05:34;8.20;85.00
21734;DHT22;11029;47.820;10.534;2023-03-14T01:08:01;8.10;85.40
21734;DHT22;11029;47.820;10.534;2023-03-14T01:10:28;8.10;85.80
21734;DHT22;11029;47.820;10.534;2023-03-14T01:12:57;8.10;85.20
21734;DHT22;11029;47.820;10.534;2023-03-14T01:15:23;8.00;85.60
21734;DHT22;11029;47.820;10.534;2023-03-14T01:17:50;8.00;85.40
21734;DHT22;11029;47.820;10.534;2023-03-14T01:20:18;7.90;85.50
21734;DHT22;11029;47.820;10.534;2023-03-14T01:22:45;7.80;85.30
21734;DHT22;11029;47.820;10.534;2023-03-14T01:25:14;7.70;85.00
21734;DHT22;11029;47.820;10.534;2023-03-14T01:27:42;7.70;85.50
21734;DHT22;11029;47.820;10.534;2023-03-14T01:30:10;7.60;84.20
21734;DHT22;11029;47.820;10.534;2023-03-14T01:32:38;7.50;83.60
21734;DHT22;11029;47.820;10.534;2023-03-14T01:35:05;7.40;84.40
21734;DHT22;11029;47.820;10.534;2023-03-14T01:37:33;7.30;85.50
21734;DHT22;11029;47.820;10.534;2023-03-14T01:40:00;7.20;85.50
21734;DHT22;11029;47.820;10.534;2023-03-14T01:42:27;7.10;84.90
21734;DHT22;11029;47.820;10.534;2023-03-14T01:44:59;7.10;84.60
21734;DHT22;11029;47.820;10.534;2023-03-14T01:47:27;6.90;83.20
21734;DHT22;11029;47.820;10.534;2023-03-14T01:50:08;6.80;84.40
21734;DHT22;11029;47.820;10.534;2023-03-14T01:52:41;6.80;84.00
21734;DHT22;11029;47.820;10.534;2023-03-14T01:55:20;6.80;85.20
21734;DHT22;11029;47.820;10.534;2023-03-14T01:57:52;6.70;83.90
21734;DHT22;11029;47.820;10.534;2023-03-14T02:00:21;6.60;84.80
21734;DHT22;11029;47.820;10.534;2023-03-14T02:03:01;6.50;84.10
21734;DHT22;11029;47.820;10.534;2023-03-14T02:05:36;6.50;84.50
21734;DHT22;11029;47.820;10.534;2023-03-14T02:08:20;6.40;84.10
21734;DHT22;11029;47.820;10.534;2023-03-14T02:10:50;6.30;84.80
21734;DHT22;11029;47.820;10.534;2023-03-14T02:13:28;6.20;86.10
21734;DHT22;11029;47.820;10.534;2023-03-14T02:16:21;6.10;85.70
21734;DHT22;11029;47.820;10.534;2023-03-14T02:19:46;6.10;85.20
21734;DHT22;11029;47.820;10.534;2023-03-14T02:22:53;5.90;83.60
21734;DHT22;11029;47.820;10.534;2023-03-14T02:25:44;5.80;84.20
21734;DHT22;11029;47.820;10.534;2023-03-14T02:28:12;5.70;84.90
21734;DHT22;11029;47.820;10.534;2023-03-14T02:30:41;5.70;84.60
21734;DHT22;11029;47.820;10.534;2023-03-14T02:33:19;5.70;84.40
21734;DHT22;11029;47.820;10.534;2023-03-14T02:36:05;5.60;84.60
21734;DHT22;11029;47.820;10.534;2023-03-14T02:38:53;5.60;85.10
21734;DHT22;11029;47.820;10.534;2023-03-14T02:41:24;5.60;84.90
21734;DHT22;11029;47.820;10.534;2023-03-14T02:43:59;5.70;85.30
21734;DHT22;11029;47.820;10.534;2023-03-14T02:46:27;5.70;84.90
21734;DHT22;11029;47.820;10.534;2023-03-14T02:49:12;5.70;84.50
21734;DHT22;11029;47.820;10.534;2023-03-14T02:51:41;5.70;84.70
21734;DHT22;11029;47.820;10.534;2023-03-14T02:54:09;5.60;84.60
21734;DHT22;11029;47.820;10.534;2023-03-14T02:56:37;5.70;84.40
21734;DHT22;11029;47.820;10.534;2023-03-14T02:59:05;5.70;83.80
21734;DHT22;11029;47.820;10.534;2023-03-14T03:01:45;5.80;84.00
21734;DHT22;11029;47.820;10.534;2023-03-14T03:04:12;5.80;83.80
21734;DHT22;11029;47.820;10.534;2023-03-14T03:06:39;5.90;83.40
21734;DHT22;11029;47.820;10.534;2023-03-14T03:09:05;5.80;83.70
21734;DHT22;11029;47.820;10.534;2023-03-14T03:11:32;5.90;84.10
21734;DHT22;11029;47.820;10.534;2023-03-14T03:13:59;5.90;83.70
21734;DHT22;11029;47.820;10.534;2023-03-14T03:16:27;5.90;83.20
21734;DHT22;11029;47.820;10.534;2023-03-14T03:18:54;5.80;83.70
21734;DHT22;11029;47.820;10.534;2023-03-14T03:21:21;5.90;84.10
21734;DHT22;11029;47.820;10.534;2023-03-14T03:23:50;5.90;83.90
21734;DHT22;11029;47.820;10.534;2023-03-14T03:26:16;5.90;83.70
21734;DHT22;11029;47.820;10.534;2023-03-14T03:28:43;5.90;83.40
21734;DHT22;11029;47.820;10.534;2023-03-14T03:31:12;5.90;83.30
21734;DHT22;11029;47.820;10.534;2023-03-14T03:33:39;5.90;83.70
21734;DHT22;11029;47.820;10.534;2023-03-14T03:36:06;5.90;83.90
21734;DHT22;11029;47.820;10.534;2023-03-14T03:38:36;5.90;83.90
21734;DHT22;11029;47.820;10.534;2023-03-14T03:41:05;6.00;83.50
21734;DHT22;11029;47.820;10.534;2023-03-14T03:43:33;5.90;83.70
21734;DHT22;11029;47.820;10.534;2023-03-14T03:46:05;5.90;83.90
21734;DHT22;11029;47.820;10.534;2023-03-14T03:48:33;6.00;84.00
21734;DHT22;11029;47.820;10.534;2023-03-14T03:51:03;6.00;84.00
21734;DHT22;11029;47.820;10.534;2023-03-14T03:53:31;5.90;84.10
21734;DHT22;11029;47.820;10.534;2023-03-14T03:56:04;5.90;84.20
21734;DHT22;11029;47.820;10.534;2023-03-14T03:58:32;6.00;84.00
21734;DHT22;11029;47.820;10.534;2023-03-14T04:00:59;6.00;83.90
21734;DHT22;11029;47.820;10.534;2023-03-14T04:03:26;6.00;83.60
21734;DHT22;11029;47.820;10.534;2023-03-14T04:06:04;6.10;83.70
21734;DHT22;11029;47.820;10.534;2023-03-14T04:08:33;6.10;83.60
21734;DHT22;11029;47.820;10.534;2023-03-14T04:11:01;6.10;83.50
21734;DHT22;11029;47.820;10.534;2023-03-14T04:13:51;6.00;83.10
21734;DHT22;11029;47.820;10.534;2023-03-14T04:16:23;5.90;83.80
21734;DHT22;11029;47.820;10.534;2023-03-14T04:18:56;6.00;83.70
21734;DHT22;11029;47.820;10.534;2023-03-14T04:21:23;6.00;83.40
21734;DHT22;11029;47.820;10.534;2023-03-14T04:23:54;5.90;83.20
21734;DHT22;11029;47.820;10.534;2023-03-14T04:26:22;5.90;83.30
21734;DHT22;11029;47.820;10.534;2023-03-14T04:28:49;5.80;82.80
21734;DHT22;11029;47.820;10.534;2023-03-14T04:31:18;5.90;83.20
21734;DHT22;11029;47.820;10.534;2023-03-14T04:33:46;5.90;83.00
21734;DHT22;11029;47.820;10.534;2023-03-14T04:36:15;5.90;82.80
21734;DHT22;11029;47.820;10.534;2023-03-14T04:38:42;5.90;82.90
21734;DHT22;11029;47.820;10.534;2023-03-14T04:41:10;5.90;82.30
21734;DHT22;11029;47.820;10.534;2023-03-14T04:43:36;6.00;81.80
21734;DHT22;11029;47.820;10.534;2023-03-14T04:46:09;5.90;82.20
21734;DHT22;11029;47.820;10.534;2023-03-14T04:48:36;5.80;82.40
21734;DHT22;11029;47.820;10.534;2023-03-14T04:51:05;5.80;82.40
21734;DHT22;11029;47.820;10.534;2023-03-14T04:53:33;5.80;82.20
21734;DHT22;11029;47.820;10.534;2023-03-14T04:56:03;5.70;82.10
21734;DHT22;11029;47.820;10.534;2023-03-14T04:58:36;5.70;82.60
21734;DHT22;11029;47.820;10.534;2023-03-14T05:01:05;5.70;82.30
21734;DHT22;11029;47.820;10.534;2023-03-14T05:03:40;5.70;82.90
21734;DHT22;11029;47.820;10.534;2023-03-14T05:06:10;5.70;82.70
21734;DHT22;11029;47.820;10.534;2023-03-14T05:08:48;5.70;82.40
21734;DHT22;11029;47.820;10.534;2023-03-14T05:11:44;5.70;82.30
21734;DHT22;11029;47.820;10.534;2023-03-14T05:14:32;5.70;82.60
21734;DHT22;11029;47.820;10.534;2023-03-14T05:17:02;5.70;82.40
21734;DHT22;11029;47.820;10.534;2023-03-14T05:19:48;5.70;82.60
21734;DHT22;11029;47.820;10.534;2023-03-14T05:22:53;5.70;82.40
21734;DHT22;11029;47.820;10.534;2023-03-14T05:25:39;5.70;82.60
21734;DHT22;11029;47.820;10.534;2023-03-14T05:28:18;5.70;82.30
21734;DHT22;11029;47.820;10.534;2023-03-14T05:31:06;5.80;81.80
21734;DHT22;11029;47.820;10.534;2023-03-14T05:33:47;5.80;82.10
21734;DHT22;11029;47.820;10.534;2023-03-14T05:36:33;5.80;81.70
21734;DHT22;11029;47.820;10.534;2023-03-14T05:39:20;5.80;81.80
21734;DHT22;11029;47.820;10.534;2023-03-14T05:42:19;5.80;82.00
21734;DHT22;11029;47.820;10.534;2023-03-14T05:44:56;5.80;81.80
21734;DHT22;11029;47.820;10.534;2023-03-14T05:47:37;5.80;81.60
21734;DHT22;11029;47.820;10.534;2023-03-14T05:50:15;5.90;81.50
21734;DHT22;11029;47.820;10.534;2023-03-14T05:52:54;5.90;81.40
21734;DHT22;11029;47.820;10.534;2023-03-14T05:55:54;5.90;81.10
21734;DHT22;11029;47.820;10.534;2023-03-14T05:58:40;5.90;81.20
21734;DHT22;11029;47.820;10.534;2023-03-14T06:01:42;5.90;81.00
21734;DHT22;11029;47.820;10.534;2023-03-14T06:04:14;5.90;81.50
21734;DHT22;11029;47.820;10.534;2023-03-14T06:06:43;5.90;81.30
21734;DHT22;11029;47.820;10.534;2023-03-14T06:09:11;5.90;80.70
21734;DHT22;11029;47.820;10.534;2023-03-14T06:11:41;5.90;81.00
21734;DHT22;11029;47.820;10.534;2023-03-14T06:14:08;6.00;81.10
21734;DHT22;11029;47.820;10.534;2023-03-14T06:16:36;6.10;81.30
21734;DHT22;11029;47.820;10.534;2023-03-14T06:19:03;6.20;81.60
21734;DHT22;11029;47.820;10.534;2023-03-14T06:21:30;6.30;81.40
21734;DHT22;11029;47.820;10.534;2023-03-14T06:23:57;6.30;81.30
21734;DHT22;11029;47.820;10.534;2023-03-14T06:26:27;6.40;81.10
21734;DHT22;11029;47.820;10.534;2023-03-14T06:28:55;6.40;80.70
21734;DHT22;11029;47.820;10.534;2023-03-14T06:31:22;6.50;80.50
21734;DHT22;11029;47.820;10.534;2023-03-14T06:33:53;6.50;80.60
21734;DHT22;11029;47.820;10.534;2023-03-14T06:36:22;6.50;80.30
21734;DHT22;11029;47.820;10.534;2023-03-14T06:38:50;6.50;80.10
21734;DHT22;11029;47.820;10.534;2023-03-14T06:41:17;6.50;80.30
21734;DHT22;11029;47.820;10.534;2023-03-14T06:43:46;6.60;80.00
21734;DHT22;11029;47.820;10.534;2023-03-14T06:46:14;6.50;79.00
21734;DHT22;11029;47.820;10.534;2023-03-14T06:48:42;6.60;79.00
21734;DHT22;11029;47.820;10.534;2023-03-14T06:51:10;6.50;78.10
21734;DHT22;11029;47.820;10.534;2023-03-14T06:53:37;6.50;77.10
21734;DHT22;11029;47.820;10.534;2023-03-14T06:56:05;6.50;77.70
21734;DHT22;11029;47.820;10.534;2023-03-14T06:58:33;6.60;78.10
21734;DHT22;11029;47.820;10.534;2023-03-14T07:01:02;6.60;77.60
21734;DHT22;11029;47.820;10.534;2023-03-14T07:03:35;6.70;77.80
21734;DHT22;11029;47.820;10.534;2023-03-14T07:06:04;6.70;77.40
21734;DHT22;11029;47.820;10.534;2023-03-14T07:08:32;6.80;77.40
21734;DHT22;11029;47.820;10.534;2023-03-14T07:11:00;6.80;77.30
21734;DHT22;11029;47.820;10.534;2023-03-14T07:13:27;6.90;77.50
21734;DHT22;11029;47.820;10.534;2023-03-14T07:15:59;7.00;77.80
21734;DHT22;11029;47.820;10.534;2023-03-14T07:18:27;7.00;77.30
21734;DHT22;11029;47.820;10.534;2023-03-14T07:20:54;7.00;77.80
21734;DHT22;11029;47.820;10.534;2023-03-14T07:23:21;7.00;77.90
21734;DHT22;11029;47.820;10.534;2023-03-14T07:25:51;7.00;77.60
21734;DHT22;11029;47.820;10.534;2023-03-14T07:28:21;7.10;77.80
21734;DHT22;11029;47.820;10.534;2023-03-14T07:30:55;7.20;77.60
21734;DHT22;11029;47.820;10.534;2023-03-14T07:33:27;7.20;77.40
21734;DHT22;11029;47.820;10.534;2023-03-14T07:35:54;7.30;77.20
21734;DHT22;11029;47.820;10.534;2023-03-14T07:38:22;7.30;76.70
21734;DHT22;11029;47.820;10.534;2023-03-14T07:41:18;7.30;76.80
21734;DHT22;11029;47.820;10.534;2023-03-14T07:44:05;7.30;77.30
21734;DHT22;11029;47.820;10.534;2023-03-14T07:46:31;7.40;77.40
21734;DHT22;11029;47.820;10.534;2023-03-14T07:48:58;7.30;77.70
21734;DHT22;11029;47.820;10.534;2023-03-14T07:51:25;7.40;77.50
21734;DHT22;11029;47.820;10.534;2023-03-14T07:53:51;7.30;76.80
21734;DHT22;11029;47.820;10.534;2023-03-14T07:56:18;7.40;77.50
21734;DHT22;11029;47.820;10.534;2023-03-14T07:58:45;7.50;77.80
21734;DHT22;11029;47.820;10.534;2023-03-14T08:01:11;7.60;77.60
21734;DHT22;11029;47.820;10.534;2023-03-14T08:03:38;7.80;77.20
21734;DHT22;11029;47.820;10.534;2023-03-14T08:06:05;7.90;76.70
21734;DHT22;11029;47.820;10.534;2023-03-14T08:08:32;7.80;73.60
21734;DHT22;11029;47.820;10.534;2023-03-14T08:11:06;7.70;72.80
21734;DHT22;11029;47.820;10.534;2023-03-14T08:13:36;7.40;73.50
21734;DHT22;11029;47.820;10.534;2023-03-14T08:16:03;7.30;72.30
21734;DHT22;11029;47.820;10.534;2023-03-14T08:18:30;7.30;73.40
21734;DHT22;11029;47.820;10.534;2023-03-14T08:20:57;7.40;73.40
21734;DHT22;11029;47.820;10.534;2023-03-14T08:23:24;7.40;71.60
21734;DHT22;11029;47.820;10.534;2023-03-14T08:25:51;7.30;70.90
21734;DHT22;11029;47.820;10.534;2023-03-14T08:28:18;7.40;71.60
21734;DHT22;11029;47.820;10.534;2023-03-14T08:30:45;7.40;70.40
21734;DHT22;11029;47.820;10.534;2023-03-14T08:33:13;7.50;70.00
21734;DHT22;11029;47.820;10.534;2023-03-14T08:35:40;7.40;70.70
21734;DHT22;11029;47.820;10.534;2023-03-14T08:38:07;7.50;69.80
21734;DHT22;11029;47.820;10.534;2023-03-14T08:40:33;7.60;69.70
21734;DHT22;11029;47.820;10.534;2023-03-14T08:43:00;7.60;69.70
21734;DHT22;11029;47.820;10.534;2023-03-14T08:45:27;7.60;68.80
21734;DHT22;11029;47.820;10.534;2023-03-14T08:47:54;7.70;69.20
21734;DHT22;11029;47.820;10.534;2023-03-14T08:50:20;7.80;68.20
21734;DHT22;11029;47.820;10.534;2023-03-14T08:52:49;7.80;69.40
21734;DHT22;11029;47.820;10.534;2023-03-14T08:55:16;7.80;68.20
21734;DHT22;11029;47.820;10.534;2023-03-14T08:57:43;7.90;68.30
21734;DHT22;11029;47.820;10.534;2023-03-14T09:00:10;7.90;69.10
21734;DHT22;11029;47.820;10.534;2023-03-14T09:02:41;8.20;68.10
21734;DHT22;11029;47.820;10.534;2023-03-14T09:05:09;8.40;66.70
21734;DHT22;11029;47.820;10.534;2023-03-14T09:07:37;8.30;67.40
21734;DHT22;11029;47.820;10.534;2023-03-14T09:10:05;8.40;67.80
21734;DHT22;11029;47.820;10.534;2023-03-14T09:12:32;8.50;66.60
21734;DHT22;11029;47.820;10.534;2023-03-14T09:14:59;8.50;65.90
21734;DHT22;11029;47.820;10.534;2023-03-14T09:17:26;8.70;66.40
21734;DHT22;11029;47.820;10.534;2023-03-14T09:19:53;8.70;65.70
21734;DHT22;11029;47.820;10.534;2023-03-14T09:22:20;8.60;66.30
21734;DHT22;11029;47.820;10.534;2023-03-14T09:24:47;8.70;66.00
21734;DHT22;11029;47.820;10.534;2023-03-14T09:27:14;8.80;64.80
21734;DHT22;11029;47.820;10.534;2023-03-14T09:29:41;8.90;64.60
21734;DHT22;11029;47.820;10.534;2023-03-14T09:32:08;9.10;64.50
21734;DHT22;11029;47.820;10.534;2023-03-14T09:34:35;9.20;64.10
21734;DHT22;11029;47.820;10.534;2023-03-14T09:37:02;9.40;64.00
21734;DHT22;11029;47.820;10.534;2023-03-14T09:39:29;9.70;65.20
21734;DHT22;11029;47.820;10.534;2023-03-14T09:41:57;9.70;62.20
21734;DHT22;11029;47.820;10.534;2023-03-14T09:44:30;9.50;61.80
21734;DHT22;11029;47.820;10.534;2023-03-14T09:47:03;9.50;60.80
21734;DHT22;11029;47.820;10.534;2023-03-14T09:49:50;9.60;60.00
21734;DHT22;11029;47.820;10.534;2023-03-14T09:52:33;9.50;59.60
21734;DHT22;11029;47.820;10.534;2023-03-14T09:55:07;9.30;60.10
21734;DHT22;11029;47.820;10.534;2023-03-14T09:57:36;9.10;60.10
21734;DHT22;11029;47.820;10.534;2023-03-14T10:00:18;8.90;60.50
21734;DHT22;11029;47.820;10.534;2023-03-14T10:02:54;8.90;60.90
21734;DHT22;11029;47.820;10.534;2023-03-14T10:05:24;9.00;60.80
21734;DHT22;11029;47.820;10.534;2023-03-14T10:07:51;9.00;58.70
21734;DHT22;11029;47.820;10.534;2023-03-14T10:10:25;9.10;60.20
21734;DHT22;11029;47.820;10.534;2023-03-14T10:12:59;9.10;58.30
21734;DHT22;11029;47.820;10.534;2023-03-14T10:15:30;9.20;58.20
21734;DHT22;11029;47.820;10.534;2023-03-14T10:17:59;9.20;59.10
21734;DHT22;11029;47.820;10.534;2023-03-14T10:20:34;9.30;58.80
21734;DHT22;11029;47.820;10.534;2023-03-14T10:25:41;9.50;59.90
21734;DHT22;11029;47.820;10.534;2023-03-14T10:31:11;9.40;57.80
21734;DHT22;11029;47.820;10.534;2023-03-14T10:33:38;9.30;58.20
21734;DHT22;11029;47.820;10.534;2023-03-14T10:36:15;9.30;57.60
21734;DHT22;11029;47.820;10.534;2023-03-14T10:38:44;9.30;57.90
21734;DHT22;11029;47.820;10.534;2023-03-14T10:41:23;9.40;58.50
21734;DHT22;11029;47.820;10.534;2023-03-14T10:43:52;9.60;57.10
21734;DHT22;11029;47.820;10.534;2023-03-14T10:46:20;9.70;58.30
21734;DHT22;11029;47.820;10.534;2023-03-14T10:49:06;9.90;58.30
21734;DHT22;11029;47.820;10.534;2023-03-14T10:51:33;10.00;56.10
21734;DHT22;11029;47.820;10.534;2023-03-14T10:54:02;10.10;56.30
21734;DHT22;11029;47.820;10.534;2023-03-14T10:56:36;10.30;56.80
21734;DHT22;11029;47.820;10.534;2023-03-14T10:59:07;10.20;55.00
21734;DHT22;11029;47.820;10.534;2023-03-14T11:02:00;10.30;56.60
21734;DHT22;11029;47.820;10.534;2023-03-14T11:08:48;10.10;57.20
21734;DHT22;11029;47.820;10.534;2023-03-14T11:11:23;9.80;57.10
21734;DHT22;11029;47.820;10.534;2023-03-14T11:14:22;9.80;58.20
21734;DHT22;11029;47.820;10.534;2023-03-14T11:17:18;9.90;57.70
21734;DHT22;11029;47.820;10.534;2023-03-14T11:19:53;9.90;58.30
21734;DHT22;11029;47.820;10.534;2023-03-14T11:22:25;9.90;58.20
21734;DHT22;11029;47.820;10.534;2023-03-14T11:25:12;10.00;58.00
21734;DHT22;11029;47.820;10.534;2023-03-14T11:27:52;10.30;58.00
21734;DHT22;11029;47.820;10.534;2023-03-14T11:30:34;10.10;58.00
21734;DHT22;11029;47.820;10.534;2023-03-14T11:35:35;9.50;60.20
21734;DHT22;11029;47.820;10.534;2023-03-14T11:40:33;9.30;61.30
21734;DHT22;11029;47.820;10.534;2023-03-14T11:43:17;9.10;61.60
21734;DHT22;11029;47.820;10.534;2023-03-14T11:45:48;9.00;63.40
21734;DHT22;11029;47.820;10.534;2023-03-14T11:48:28;8.80;63.80
21734;DHT22;11029;47.820;10.534;2023-03-14T11:50:59;8.80;64.80
21734;DHT22;11029;47.820;10.534;2023-03-14T11:53:48;8.70;66.10
21734;DHT22;11029;47.820;10.534;2023-03-14T11:56:51;8.60;66.00
21734;DHT22;11029;47.820;10.534;2023-03-14T11:59:55;8.30;66.60
21734;DHT22;11029;47.820;10.534;2023-03-14T12:05:30;8.00;67.20
21734;DHT22;11029;47.820;10.534;2023-03-14T12:10:40;7.90;69.10
21734;DHT22;11029;47.820;10.534;2023-03-14T12:13:10;7.90;68.80
21734;DHT22;11029;47.820;10.534;2023-03-14T12:15:41;8.00;68.50
21734;DHT22;11029;47.820;10.534;2023-03-14T12:18:20;8.00;68.30
21734;DHT22;11029;47.820;10.534;2023-03-14T12:20:54;8.00;69.60
21734;DHT22;11029;47.820;10.534;2023-03-14T12:23:21;8.10;69.20
21734;DHT22;11029;47.820;10.534;2023-03-14T12:42:10;7.20;75.10
21734;DHT22;11029;47.820;10.534;2023-03-14T12:44:44;7.10;74.90
21734;DHT22;11029;47.820;10.534;2023-03-14T12:52:33;6.70;77.90
21734;DHT22;11029;47.820;10.534;2023-03-14T12:55:18;6.60;78.40
21734;DHT22;11029;47.820;10.534;2023-03-14T12:57:53;6.50;79.30
21734;DHT22;11029;47.820;10.534;2023-03-14T13:00:34;6.40;78.30
21734;DHT22;11029;47.820;10.534;2023-03-14T13:03:19;6.30;78.80
21734;DHT22;11029;47.820;10.534;2023-03-14T13:06:00;6.30;79.70
21734;DHT22;11029;47.820;10.534;2023-03-14T13:08:42;6.30;80.40
21734;DHT22;11029;47.820;10.534;2023-03-14T13:11:12;6.30;79.90
21734;DHT22;11029;47.820;10.534;2023-03-14T13:13:48;6.30;80.20
21734;DHT22;11029;47.820;10.534;2023-03-14T13:16:19;6.20;80.50
21734;DHT22;11029;47.820;10.534;2023-03-14T13:18:48;6.10;78.90
21734;DHT22;11029;47.820;10.534;2023-03-14T13:21:16;6.10;79.70
21734;DHT22;11029;47.820;10.534;2023-03-14T13:26:38;5.90;80.30
21734;DHT22;11029;47.820;10.534;2023-03-14T13:31:26;5.90;81.60
21734;DHT22;11029;47.820;10.534;2023-03-14T13:34:00;5.60;81.40
21734;DHT22;11029;47.820;10.534;2023-03-14T13:36:27;5.40;79.10
21734;DHT22;11029;47.820;10.534;2023-03-14T13:38:59;5.30;79.50
21734;DHT22;11029;47.820;10.534;2023-03-14T13:41:26;5.20;80.50
21734;DHT22;11029;47.820;10.534;2023-03-14T13:44:02;5.00;80.70
21734;DHT22;11029;47.820;10.534;2023-03-14T13:46:30;4.90;81.60
21734;DHT22;11029;47.820;10.534;2023-03-14T13:49:02;4.90;81.50
21734;DHT22;11029;47.820;10.534;2023-03-14T13:51:30;4.80;81.90
21734;DHT22;11029;47.820;10.534;2023-03-14T13:54:00;4.70;82.70
21734;DHT22;11029;47.820;10.534;2023-03-14T13:56:29;4.70;82.70
21734;DHT22;11029;47.820;10.534;2023-03-14T13:58:56;4.60;82.50
21734;DHT22;11029;47.820;10.534;2023-03-14T14:01:34;4.60;83.50
21734;DHT22;11029;47.820;10.534;2023-03-14T14:04:07;4.70;83.20
21734;DHT22;11029;47.820;10.534;2023-03-14T14:06:39;4.50;83.20
21734;DHT22;11029;47.820;10.534;2023-03-14T14:09:16;4.60;83.20
21734;DHT22;11029;47.820;10.534;2023-03-14T14:11:52;4.70;83.90
21734;DHT22;11029;47.820;10.534;2023-03-14T14:14:59;4.60;82.20
21734;DHT22;11029;47.820;10.534;2023-03-14T14:20:02;4.80;82.20
21734;DHT22;11029;47.820;10.534;2023-03-14T14:22:32;4.90;82.00
21734;DHT22;11029;47.820;10.534;2023-03-14T14:25:00;4.90;82.70
21734;DHT22;11029;47.820;10.534;2023-03-14T14:27:35;4.80;82.20
21734;DHT22;11029;47.820;10.534;2023-03-14T14:32:47;4.90;81.00
21734;DHT22;11029;47.820;10.534;2023-03-14T14:35:35;4.90;80.60
21734;DHT22;11029;47.820;10.534;2023-03-14T14:38:03;4.90;81.70
21734;DHT22;11029;47.820;10.534;2023-03-14T14:40:45;4.90;81.00
21734;DHT22;11029;47.820;10.534;2023-03-14T14:43:17;4.80;82.00
21734;DHT22;11029;47.820;10.534;2023-03-14T14:45:48;4.80;82.30
21734;DHT22;11029;47.820;10.534;2023-03-14T14:50:34;5.00;83.60
21734;DHT22;11029;47.820;10.534;2023-03-14T14:53:23;4.50;84.40
21734;DHT22;11029;47.820;10.534;2023-03-14T14:55:53;4.40;85.30
21734;DHT22;11029;47.820;10.534;2023-03-14T14:58:28;4.30;86.30
21734;DHT22;11029;47.820;10.534;2023-03-14T15:03:29;3.20;85.20
21734;DHT22;11029;47.820;10.534;2023-03-14T15:05:57;3.10;86.30
21734;DHT22;11029;47.820;10.534;2023-03-14T15:08:25;3.20;83.20
21734;DHT22;11029;47.820;10.534;2023-03-14T15:10:52;3.30;83.80
21734;DHT22;11029;47.820;10.534;2023-03-14T15:13:19;3.40;83.80
21734;DHT22;11029;47.820;10.534;2023-03-14T15:15:46;3.40;82.10
21734;DHT22;11029;47.820;10.534;2023-03-14T15:18:16;3.50;82.60
21734;DHT22;11029;47.820;10.534;2023-03-14T15:20:44;3.50;81.80
21734;DHT22;11029;47.820;10.534;2023-03-14T15:23:16;3.50;81.30
21734;DHT22;11029;47.820;10.534;2023-03-14T15:25:43;3.50;81.80
21734;DHT22;11029;47.820;10.534;2023-03-14T15:28:24;3.60;81.20
21734;DHT22;11029;47.820;10.534;2023-03-14T15:30:53;4.10;80.30
21734;DHT22;11029;47.820;10.534;2023-03-14T15:33:21;4.30;79.60
21734;DHT22;11029;47.820;10.534;2023-03-14T15:35:48;4.60;79.70
21734;DHT22;11029;47.820;10.534;2023-03-14T15:38:17;4.70;78.80
21734;DHT22;11029;47.820;10.534;2023-03-14T15:40:47;4.40;79.00
21734;DHT22;11029;47.820;10.534;2023-03-14T15:43:14;4.50;78.80
21734;DHT22;11029;47.820;10.534;2023-03-14T15:45:41;4.40;79.30
21734;DHT22;11029;47.820;10.534;2023-03-14T15:48:16;4.60;76.90
21734;DHT22;11029;47.820;10.534;2023-03-14T15:50:44;4.60;76.40
21734;DHT22;11029;47.820;10.534;2023-03-14T15:53:11;4.60;76.70
21734;DHT22;11029;47.820;10.534;2023-03-14T15:55:38;4.60;75.90
21734;DHT22;11029;47.820;10.534;2023-03-14T15:58:05;4.90;74.10
21734;DHT22;11029;47.820;10.534;2023-03-14T16:00:31;5.10;72.60
21734;DHT22;11029;47.820;10.534;2023-03-14T16:02:58;5.20;71.50
21734;DHT22;11029;47.820;10.534;2023-03-14T16:05:25;5.40;73.10
21734;DHT22;11029;47.820;10.534;2023-03-14T16:07:52;5.90;68.50
21734;DHT22;11029;47.820;10.534;2023-03-14T16:10:19;5.60;68.80
21734;DHT22;11029;47.820;10.534;2023-03-14T16:12:45;5.50;68.40
21734;DHT22;11029;47.820;10.534;2023-03-14T16:15:12;5.20;68.20
21734;DHT22;11029;47.820;10.534;2023-03-14T16:17:39;4.90;68.70
21734;DHT22;11029;47.820;10.534;2023-03-14T16:20:09;4.80;70.80
21734;DHT22;11029;47.820;10.534;2023-03-14T16:22:36;4.60;71.50
21734;DHT22;11029;47.820;10.534;2023-03-14T16:25:05;4.50;72.50
21734;DHT22;11029;47.820;10.534;2023-03-14T16:27:32;4.40;74.00
21734;DHT22;11029;47.820;10.534;2023-03-14T16:29:59;4.20;75.70
21734;DHT22;11029;47.820;10.534;2023-03-14T16:32:26;3.60;77.20
21734;DHT22;11029;47.820;10.534;2023-03-14T16:34:53;3.40;78.40
21734;DHT22;11029;47.820;10.534;2023-03-14T16:37:23;3.40;78.30
21734;DHT22;11029;47.820;10.534;2023-03-14T16:39:50;3.40;78.20
21734;DHT22;11029;47.820;10.534;2023-03-14T16:42:36;3.60;78.20
21734;DHT22;11029;47.820;10.534;2023-03-14T16:45:23;3.70;77.60
21734;DHT22;11029;47.820;10.534;2023-03-14T16:47:50;3.80;76.70
21734;DHT22;11029;47.820;10.534;2023-03-14T16:50:17;3.90;76.90
21734;DHT22;11029;47.820;10.534;2023-03-14T16:52:43;3.90;76.90
21734;DHT22;11029;47.820;10.534;2023-03-14T16:55:12;3.90;76.90
21734;DHT22;11029;47.820;10.534;2023-03-14T16:57:39;4.00;76.80